Time;durP1;ratioP1;P1;durP2;ratioP2;P2;SDS_P1;SDS_P2;PMS_P1;PMS_P2;Temp;Humidity;BMP_temperature;BMP_pressure;BME280_temperature;BME280_humidity;BME280_pressure;Samples;Min_cycle;Max_cycle;Signal;HPM_P1;HPM_P2
2022/11/03 00:02:07;;;;;;;25.02;13.20;;;;;;;8.86;87.82;96310.47;1751968;81;21014;-75
2022/11/03 00:04:33;;;;;;;23.52;13.32;;;;;;;8.87;86.90;96306.98;1752777;81;21034;-74
2022/11/03 00:07:00;;;;;;;21.48;11.22;;;;;;;8.88;87.32;96306.96;1752594;81;21018;-74
2022/11/03 00:09:27;;;;;;;21.90;12.47;;;;;;;9.05;87.85;96309.59;1752128;81;21101;-74
2022/11/03 00:11:53;;;;;;;28.00;12.45;;;;;;;9.13;86.87;96307.39;1752623;81;21053;-72
2022/11/03 00:14:20;;;;;;;25.02;12.85;;;;;;;9.15;86.27;96304.29;1751962;81;21113;-72
2022/11/03 00:16:47;;;;;;;26.07;14.23;;;;;;;9.11;86.30;96310.02;1751896;81;21078;-72
2022/11/03 00:19:15;;;;;;;28.62;14.75;;;;;;;9.12;86.13;96306.94;1753489;81;21046;-71
2022/11/03 00:21:43;;;;;;;29.72;14.78;;;;;;;8.99;85.53;96305.63;1752487;81;21556;-71
2022/11/03 00:24:10;;;;;;;28.77;14.45;;;;;;;8.92;85.85;96302.59;1752616;81;21543;-71
2022/11/03 00:26:37;;;;;;;24.90;14.38;;;;;;;8.87;86.32;96303.03;1756073;81;21523;-72
2022/11/03 00:29:11;;;;;;;29.85;15.30;;;;;;;8.86;86.35;96304.77;1751734;81;21026;-71
2022/11/03 00:31:41;;;;;;;26.20;15.18;;;;;;;8.83;86.48;96307.41;1753055;81;21521;-72
2022/11/03 00:34:08;;;;;;;28.30;15.23;;;;;;;8.82;86.62;96302.13;1752966;81;21077;-72
2022/11/03 00:36:39;;;;;;;26.23;14.63;;;;;;;8.78;86.72;96296.00;1753698;81;21073;-72
2022/11/03 00:39:07;;;;;;;22.95;12.98;;;;;;;8.78;87.00;96302.58;1743905;81;21041;-72
2022/11/03 00:41:33;;;;;;;22.40;13.13;;;;;;;8.73;86.75;96302.16;1753398;81;21002;-72
2022/11/03 00:44:18;;;;;;;24.60;13.15;;;;;;;8.68;86.68;96292.94;1752826;81;21086;-72
2022/11/03 00:46:45;;;;;;;28.05;13.72;;;;;;;8.61;86.69;96292.05;1753131;81;21046;-72
2022/11/03 00:49:11;;;;;;;24.20;13.85;;;;;;;8.54;86.82;96287.69;1714962;83;21065;-72
2022/11/03 00:51:38;;;;;;;23.98;13.45;;;;;;;8.49;86.86;96289.41;1747548;82;21085;-72
2022/11/03 00:54:06;;;;;;;25.90;13.62;;;;;;;8.45;86.88;96288.98;1746940;82;21045;-72
2022/11/03 00:56:51;;;;;;;24.57;12.93;;;;;;;8.36;86.99;96284.55;1791321;80;21030;-72
2022/11/03 01:02:21;;;;;;;21.42;11.15;;;;;;;8.19;88.04;96283.67;1736068;82;21080;-75
2022/11/03 01:07:32;;;;;;;16.55;9.63;;;;;;;8.20;88.40;96278.84;1737726;82;21050;-74
2022/11/03 01:09:59;;;;;;;19.23;10.38;;;;;;;8.26;88.66;96276.66;1720249;83;21192;-74
2022/11/03 01:12:26;;;;;;;19.98;9.35;;;;;;;8.35;88.62;96279.30;1695307;83;21027;-74
2022/11/03 01:14:53;;;;;;;19.67;10.03;;;;;;;8.37;88.35;96272.30;1701348;82;21046;-75
2022/11/03 01:17:26;;;;;;;17.57;8.90;;;;;;;8.42;88.35;96273.21;1701760;82;21537;-74
2022/11/03 01:19:55;;;;;;;18.95;9.00;;;;;;;8.49;88.31;96273.63;1740419;82;21810;-74
2022/11/03 01:22:23;;;;;;;17.07;9.43;;;;;;;8.53;88.04;96266.19;1690722;83;21581;-75
2022/11/03 01:24:50;;;;;;;19.23;8.90;;;;;;;8.56;87.95;96264.87;1721137;82;21085;-74
2022/11/03 01:27:19;;;;;;;14.73;8.58;;;;;;;8.59;87.19;96263.98;1743831;82;21125;-74
2022/11/03 01:29:46;;;;;;;14.95;8.70;;;;;;;8.62;87.06;96268.83;1753412;81;21245;-74
2022/11/03 01:32:13;;;;;;;16.05;8.83;;;;;;;8.68;87.26;96258.73;1752256;81;21026;-74
2022/11/03 01:34:40;;;;;;;15.85;8.70;;;;;;;8.72;86.21;96254.34;1751867;82;21006;-74
2022/11/03 01:37:07;;;;;;;11.55;7.55;;;;;;;8.70;86.53;96265.33;1751790;82;20986;-74
2022/11/03 01:39:33;;;;;;;12.98;8.05;;;;;;;8.72;86.44;96261.81;1752175;81;21524;-74
2022/11/03 01:42:00;;;;;;;12.43;7.83;;;;;;;8.68;86.06;96252.61;1753267;81;21062;-74
2022/11/03 01:44:34;;;;;;;14.90;8.80;;;;;;;8.51;85.06;96259.17;1721739;83;21062;-74
2022/11/03 01:47:14;;;;;;;14.93;9.90;;;;;;;8.21;84.46;96248.63;1729617;82;21093;-75
2022/11/03 01:50:08;;;;;;;16.42;9.28;;;;;;;8.06;85.11;96251.65;1789349;79;21030;-74
2022/11/03 01:52:43;;;;;;;23.70;12.93;;;;;;;7.88;85.71;96251.17;1788730;80;21027;-74
2022/11/03 01:55:19;;;;;;;21.37;10.40;;;;;;;7.74;85.62;96257.72;1717847;82;21568;-74
2022/11/03 01:58:18;;;;;;;22.13;11.65;;;;;;;7.57;86.61;96257.66;1712252;82;21580;-74
2022/11/03 02:00:48;;;;;;;11.47;7.63;;;;;;;7.44;87.14;96261.11;1739429;82;21619;-74
2022/11/03 02:03:17;;;;;;;10.90;6.53;;;;;;;7.32;86.52;96271.11;1742588;82;21035;-74
2022/11/03 02:05:45;;;;;;;8.73;6.30;;;;;;;7.26;86.92;96280.28;1781485;80;21061;-74
2022/11/03 02:08:17;;;;;;;6.63;5.17;;;;;;;7.14;86.87;96271.89;1759981;80;20987;-74
2022/11/03 02:10:47;;;;;;;9.90;5.30;;;;;;;7.01;86.23;96275.33;1779057;80;21097;-74
2022/11/03 02:13:24;;;;;;;10.57;6.17;;;;;;;6.88;86.15;96282.24;1765986;80;21033;-74
2022/11/03 02:15:57;;;;;;;8.10;5.80;;;;;;;6.81;86.21;96280.00;1766269;80;21034;-74
2022/11/03 02:18:27;;;;;;;;;;;;;;;6.78;86.55;96278.67;1781683;80;21061;-74
2022/11/03 02:21:16;;;;;;;7.20;4.87;;;;;;;6.76;86.61;96286.95;1778449;80;20089;-74
2022/11/03 02:24:03;;;;;;;7.20;5.00;;;;;;;6.75;86.62;96288.24;1778874;80;21026;-74
2022/11/03 02:26:30;;;;;;;7.70;5.03;;;;;;;6.72;86.76;96289.97;1773526;80;21065;-74
2022/11/03 02:28:57;;;;;;;8.23;5.10;;;;;;;6.77;87.13;96289.14;1791972;80;21515;-74
2022/11/03 02:31:44;;;;;;;6.90;4.70;;;;;;;6.80;86.73;96287.41;1779447;80;21033;-74
2022/11/03 02:34:23;;;;;;;8.83;4.70;;;;;;;6.76;86.11;96290.02;1777360;80;21026;-74
2022/11/03 02:36:56;;;;;;;9.13;5.17;;;;;;;6.75;86.41;96286.49;1782890;80;21492;-74
2022/11/03 02:39:37;;;;;;;6.50;4.37;;;;;;;6.78;86.50;96289.16;1775195;80;21033;-74
2022/11/03 02:42:04;;;;;;;5.30;4.00;;;;;;;6.84;86.77;96289.63;1781071;80;21042;-74
2022/11/03 02:44:33;;;;;;;7.57;4.30;;;;;;;6.92;86.67;96298.42;1791771;79;21119;-74
2022/11/03 02:47:05;;;;;;;5.70;3.87;;;;;;;7.00;86.88;96303.72;1781285;80;21021;-74
2022/11/03 02:49:40;;;;;;;5.37;4.10;;;;;;;7.13;86.55;96304.23;1757833;80;21064;-74
2022/11/03 02:52:10;;;;;;;7.47;4.30;;;;;;;7.10;85.62;96299.84;1768581;80;21018;-74
2022/11/03 02:54:41;;;;;;;7.27;4.00;;;;;;;7.03;85.34;96303.73;1778956;79;22129;-74
2022/11/03 02:57:21;;;;;;;4.83;3.53;;;;;;;6.92;85.06;96301.92;1704560;83;21105;-74
2022/11/03 02:59:55;;;;;;;6.40;4.50;;;;;;;6.83;85.12;96304.50;1774809;80;20998;-74
2022/11/03 03:02:31;;;;;;;4.77;4.03;;;;;;;6.81;85.69;96306.67;1786530;80;21469;-75
2022/11/03 03:05:02;;;;;;;7.17;3.93;;;;;;;6.85;86.53;96301.88;1719624;83;21105;-74
2022/11/03 03:07:36;;;;;;;6.43;4.03;;;;;;;6.95;86.27;96301.06;1781129;80;21141;-74
2022/11/03 03:10:17;;;;;;;8.10;3.93;;;;;;;7.00;86.58;96299.34;1752570;80;21009;-74
2022/11/03 03:12:50;;;;;;;5.47;4.17;;;;;;;7.08;86.44;96303.33;1773393;80;21044;-74
2022/11/03 03:15:21;;;;;;;6.73;5.00;;;;;;;7.08;86.47;96297.67;1773407;80;21025;-74
2022/11/03 03:17:56;;;;;;;10.70;5.67;;;;;;;7.12;86.95;96307.30;1775572;80;21551;-74
2022/11/03 03:20:35;;;;;;;8.00;5.87;;;;;;;7.24;87.27;96307.82;1775143;80;21053;-74
2022/11/03 03:23:19;;;;;;;8.60;5.13;;;;;;;7.36;87.26;96303.95;1786958;80;21030;-74
2022/11/03 03:26:00;;;;;;;9.10;5.40;;;;;;;7.40;86.39;96298.72;1773065;80;21068;-74
2022/11/03 03:28:44;;;;;;;8.93;5.23;;;;;;;7.36;86.25;96305.27;1795803;79;21117;-74
2022/11/03 03:31:14;;;;;;;7.73;5.47;;;;;;;7.40;86.35;96294.77;1782531;79;21073;-74
2022/11/03 03:33:43;;;;;;;9.70;5.70;;;;;;;7.35;86.24;96291.68;1785954;79;21119;-74
2022/11/03 03:36:14;;;;;;;8.57;5.73;;;;;;;7.34;86.05;96287.75;1788423;79;21068;-74
2022/11/03 03:38:48;;;;;;;9.37;5.70;;;;;;;7.29;85.96;96293.41;1698416;83;21054;-74
2022/11/03 03:41:20;;;;;;;8.10;6.03;;;;;;;7.25;86.11;96299.51;1791666;80;21018;-74
2022/11/03 03:43:45;;;;;;;10.67;6.53;;;;;;;7.25;86.37;96300.38;1784644;79;20994;-74
2022/11/03 03:46:14;;;;;;;9.53;5.70;;;;;;;7.27;86.34;96298.64;1775503;80;21059;-74
2022/11/03 03:48:42;;;;;;;8.27;5.43;;;;;;;7.24;86.51;96294.70;1780829;80;21087;-74
2022/11/03 03:51:09;;;;;;;7.57;5.33;;;;;;;7.19;86.50;96297.73;1783408;80;20988;-74
2022/11/03 03:53:36;;;;;;;9.90;5.63;;;;;;;7.18;86.57;96294.64;1773765;80;21034;-74
2022/11/03 03:56:04;;;;;;;7.27;5.50;;;;;;;7.19;86.51;96292.92;1752050;80;21027;-74
2022/11/03 03:58:31;;;;;;;7.23;5.10;;;;;;;7.16;86.30;96295.09;1773991;80;22917;-74
2022/11/03 04:00:58;;;;;;;8.37;5.43;;;;;;;7.13;86.09;96291.12;1782185;79;21516;-74
2022/11/03 04:03:26;;;;;;;8.73;5.50;;;;;;;7.10;86.08;96291.98;1776171;80;21030;-74
2022/11/03 04:05:55;;;;;;;7.20;5.67;;;;;;;7.07;86.12;96281.91;1768842;80;21099;-74
2022/11/03 04:08:22;;;;;;;8.33;5.37;;;;;;;7.05;85.98;96287.58;1708824;83;21106;-74
2022/11/03 04:24:24;;;;;;;9.90;7.30;;;;;;;6.88;86.17;96289.67;1789513;79;21007;-74
2022/11/03 04:26:51;;;;;;;11.10;7.97;;;;;;;6.86;86.32;96294.02;1777016;80;21109;-74
2022/11/03 04:29:18;;;;;;;20.70;13.77;;;;;;;6.87;86.31;96289.65;1792041;80;21011;-74
2022/11/03 04:31:45;;;;;;;20.00;11.53;;;;;;;6.91;86.86;96291.44;1782498;80;21052;-74
2022/11/03 04:34:12;;;;;;;24.63;12.30;;;;;;;6.99;87.08;96298.05;1790985;80;20994;-73
2022/11/03 04:36:38;;;;;;;22.27;12.93;;;;;;;7.01;86.73;96295.88;1780304;80;21093;-78
2022/11/03 04:39:16;;;;;;;34.43;19.47;;;;;;;7.04;86.95;96300.27;1738931;81;21030;-79
2022/11/03 04:41:42;;;;;;;39.83;22.23;;;;;;;7.12;87.35;96304.68;1737023;81;20998;-73
2022/11/03 04:44:16;;;;;;;17.40;10.00;;;;;;;7.24;87.81;96297.32;1780758;79;21038;-75
2022/11/03 04:46:45;;;;;;;;;;;;;;;7.28;87.00;96298.20;1778801;80;20997;-74
2022/11/03 04:49:20;;;;;;;75.20;49.80;;;;;;;7.31;87.00;96302.19;1785495;79;20117;-73
2022/11/03 04:51:48;;;;;;;28.32;16.95;;;;;;;7.36;86.51;96296.52;1771477;80;21086;-73
2022/11/03 04:54:21;;;;;;;54.80;48.80;;;;;;;7.34;86.37;96300.88;1722024;82;21109;-73
2022/11/03 04:56:48;;;;;;;;;;;;;;;7.33;85.77;96298.70;1707702;82;21485;-73
2022/11/03 04:59:16;;;;;;;19.33;12.33;;;;;;;7.33;85.76;96303.95;1744024;82;20114;-73
2022/11/03 05:01:44;;;;;;;35.33;20.57;;;;;;;7.32;85.76;96312.67;1794618;79;21638;-73
2022/11/03 05:04:15;;;;;;;38.27;23.17;;;;;;;7.25;83.78;96312.19;1777815;79;21072;-72
2022/11/03 05:06:50;;;;;;;28.53;18.47;;;;;;;7.14;84.16;96313.45;1784575;79;21068;-74
2022/11/03 05:09:26;;;;;;;16.90;10.77;;;;;;;7.15;85.10;96311.69;1744536;80;21006;-73
2022/11/03 05:11:53;;;;;;;13.03;6.60;;;;;;;7.12;84.41;96307.74;1798338;79;21041;-73
2022/11/03 05:14:26;;;;;;;8.77;5.77;;;;;;;7.12;85.00;96305.13;1786688;80;20989;-73
2022/11/03 05:16:55;;;;;;;11.20;7.73;;;;;;;7.09;84.19;96310.36;1785537;80;21398;-73
2022/11/03 05:19:29;;;;;;;21.25;13.80;;;;;;;6.94;84.13;96313.31;1788668;79;21503;-73
2022/11/03 05:21:59;;;;;;;26.37;19.73;;;;;;;6.90;84.56;96315.48;1788111;79;21136;-71
2022/11/03 05:24:26;;;;;;;20.07;16.33;;;;;;;6.87;84.70;96318.06;1759593;80;20995;-70
2022/11/03 05:26:56;;;;;;;12.90;10.07;;;;;;;6.88;85.17;96318.97;1720066;82;21094;-70
2022/11/03 05:29:36;;;;;;;10.70;7.83;;;;;;;6.90;84.99;96313.27;1748788;82;21125;-70
2022/11/03 05:32:09;;;;;;;12.73;9.73;;;;;;;6.92;85.16;96314.17;1734072;82;21531;-72
2022/11/03 05:34:40;;;;;;;9.77;6.83;;;;;;;6.97;85.24;96316.83;1720367;83;21089;-72
2022/11/03 05:37:28;;;;;;;11.50;6.03;;;;;;;6.99;85.08;96323.84;1720459;83;21026;-73
2022/11/03 05:39:58;;;;;;;10.40;7.17;;;;;;;6.99;84.88;96317.28;1713873;83;21544;-72
2022/11/03 05:42:38;;;;;;;9.80;7.17;;;;;;;6.93;84.92;96323.81;1714398;83;21061;-72
2022/11/03 05:45:25;;;;;;;13.07;7.00;;;;;;;6.92;85.02;96316.80;1712688;83;21050;-72
2022/11/03 05:47:56;;;;;;;13.17;8.03;;;;;;;6.93;85.15;96312.01;1717466;83;21520;-73
2022/11/03 05:50:27;;;;;;;11.87;7.93;;;;;;;6.93;85.16;96318.56;1749091;82;21090;-73
2022/11/03 05:53:13;;;;;;;10.30;7.67;;;;;;;6.92;85.28;96320.73;1718395;82;21018;-73
2022/11/03 05:55:40;;;;;;;11.50;9.17;;;;;;;6.94;85.41;96329.49;1784938;80;21033;-73
2022/11/03 05:58:20;;;;;;;8.90;7.03;;;;;;;6.91;85.36;96329.03;1756439;80;21100;-73
2022/11/03 06:00:47;;;;;;;10.20;7.10;;;;;;;6.90;85.17;96325.08;1772973;80;21034;-73
2022/11/03 06:03:22;;;;;;;11.40;7.67;;;;;;;6.95;85.18;96331.23;1787645;80;21560;-73
2022/11/03 06:05:49;;;;;;;19.80;12.40;;;;;;;7.02;85.13;96337.42;1722606;83;21207;-74
2022/11/03 06:08:35;;;;;;;25.47;14.33;;;;;;;7.03;84.69;96341.78;1782504;79;21057;-74
2022/11/03 06:11:03;;;;;;;27.60;13.90;;;;;;;7.06;85.28;96341.83;1784205;79;21022;-74
2022/11/03 06:13:35;;;;;;;30.73;17.97;;;;;;;7.07;85.05;96343.58;1777926;80;21034;-70
2022/11/03 06:16:10;;;;;;;31.47;19.53;;;;;;;7.07;85.26;96348.38;1789226;79;21014;-71
2022/11/03 06:18:37;;;;;;;32.40;20.67;;;;;;;7.14;85.33;96348.88;1747861;81;22106;-78
2022/11/03 06:21:15;;;;;;;35.20;22.87;;;;;;;7.31;85.96;96354.69;1753863;81;21022;-70
2022/11/03 06:23:42;;;;;;;19.60;14.47;;;;;;;7.48;85.79;96352.14;1749989;82;21575;-75
2022/11/03 06:26:17;;;;;;;18.52;11.78;;;;;;;7.65;85.59;96351.80;1763963;80;21050;-73
2022/11/03 06:28:44;;;;;;;11.80;8.60;;;;;;;7.84;84.88;96354.49;1740192;81;21079;-68
2022/11/03 06:31:21;;;;;;;18.37;14.30;;;;;;;7.96;84.55;96355.45;1813602;78;21037;-74
2022/11/03 06:33:49;;;;;;;22.55;20.15;;;;;;;8.06;83.57;96361.59;1768190;80;21065;-74
2022/11/03 06:36:19;;;;;;;21.57;17.87;;;;;;;8.04;82.32;96362.05;1744918;81;21026;-72
2022/11/03 06:38:51;;;;;;;50.05;39.27;;;;;;;8.01;82.00;96364.23;1741547;81;21011;-75
2022/11/03 06:41:31;;;;;;;12.30;8.13;;;;;;;7.96;82.04;96365.06;1803362;78;21045;-71
2022/11/03 06:44:02;;;;;;;16.00;10.10;;;;;;;7.96;82.54;96368.59;1772918;79;21050;-73
2022/11/03 06:46:30;;;;;;;17.98;11.55;;;;;;;7.95;82.62;96369.88;1752895;80;20994;-71
2022/11/03 06:49:04;;;;;;;19.52;13.78;;;;;;;7.94;83.14;96375.58;1755699;80;21053;-70
2022/11/03 06:51:30;;;;;;;24.05;13.15;;;;;;;7.94;83.14;96375.58;1761314;80;20994;-72
2022/11/03 06:54:04;;;;;;;19.48;11.45;;;;;;;7.95;83.38;96375.14;1772754;78;20966;-70
2022/11/03 06:56:34;;;;;;;23.00;15.88;;;;;;;8.03;83.61;96381.30;1713526;82;21580;-68
2022/11/03 06:59:01;;;;;;;18.15;13.25;;;;;;;8.14;83.82;96383.95;1756977;80;21078;-69
2022/11/03 07:01:33;;;;;;;14.20;9.53;;;;;;;8.21;83.56;96385.33;1739507;80;21027;-71
2022/11/03 07:04:15;;;;;;;13.90;8.05;;;;;;;8.28;82.95;96380.08;1754186;80;21053;-68
2022/11/03 07:06:43;;;;;;;11.68;8.53;;;;;;;8.24;82.75;96383.14;1798760;78;21076;-70
2022/11/03 07:09:27;;;;;;;20.62;11.30;;;;;;;8.17;82.67;96383.55;1799406;78;21549;-74
2022/11/03 07:12:00;;;;;;;24.95;15.68;;;;;;;8.16;83.33;96386.16;1786907;78;21001;-72
2022/11/03 07:14:32;;;;;;;36.10;20.77;;;;;;;8.19;84.09;96384.88;1760813;81;21066;-71
2022/11/03 07:17:10;;;;;;;32.08;18.20;;;;;;;8.21;84.86;96389.69;1756368;81;21790;-77
2022/11/03 07:19:41;;;;;;;22.90;13.10;;;;;;;8.24;85.31;96389.72;1769369;78;21109;-75
2022/11/03 07:22:21;;;;;;;24.75;16.12;;;;;;;8.28;85.78;96388.83;1757895;80;21522;-77
2022/11/03 07:24:52;;;;;;;24.00;15.03;;;;;;;8.33;86.46;96387.09;1782517;78;21046;-74
2022/11/03 07:27:35;;;;;;;28.38;15.13;;;;;;;8.46;85.96;96395.92;1783987;78;21052;-72
2022/11/03 07:30:17;;;;;;;20.72;10.30;;;;;;;8.54;85.77;96382.38;1749238;78;20959;-78
2022/11/03 07:32:43;;;;;;;22.87;10.05;;;;;;;8.59;86.02;96381.95;1777630;79;21082;-74
2022/11/03 07:35:33;;;;;;;24.35;15.13;;;;;;;8.64;86.06;96381.52;1787650;79;21022;-78
2022/11/03 07:38:05;;;;;;;18.05;9.60;;;;;;;8.57;86.56;96376.25;1777584;79;21013;-80
2022/11/03 07:40:33;;;;;;;31.77;17.00;;;;;;;8.61;86.78;96374.04;1779700;80;21019;-76
2022/11/03 07:43:11;;;;;;;34.25;21.50;;;;;;;8.69;86.92;96375.36;1776786;80;21026;-75
2022/11/03 07:45:44;;;;;;;24.63;15.88;;;;;;;8.81;86.95;96371.44;1774482;80;21026;-78
2022/11/03 07:48:21;;;;;;;25.68;14.78;;;;;;;8.95;86.35;96365.75;1786471;79;21021;-77
2022/11/03 07:50:53;;;;;;;21.62;13.55;;;;;;;9.05;86.48;96366.63;1779331;80;21061;-77
2022/11/03 07:53:36;;;;;;;22.35;12.47;;;;;;;9.16;86.32;96363.98;1778962;80;21070;-74
2022/11/03 07:56:28;;;;;;;24.90;18.27;;;;;;;9.21;86.12;96358.27;1776039;80;21061;-77
2022/11/03 07:59:02;;;;;;;19.40;12.05;;;;;;;9.26;86.08;96362.65;1786810;79;20985;-75
2022/11/03 08:01:42;;;;;;;19.85;13.58;;;;;;;9.36;85.79;96352.11;1779813;80;21022;-76
2022/11/03 08:04:25;;;;;;;15.65;8.38;;;;;;;9.44;86.07;96354.28;1784881;79;21026;-73
2022/11/03 08:06:52;;;;;;;16.73;9.53;;;;;;;9.48;85.28;96351.64;1787860;79;21068;-75
2022/11/03 08:09:18;;;;;;;13.58;7.95;;;;;;;9.53;85.73;96348.56;1782359;79;21064;-75
2022/11/03 08:11:46;;;;;;;13.55;6.83;;;;;;;9.68;85.99;96356.00;1783631;80;21060;-77
2022/11/03 08:14:13;;;;;;;12.20;7.40;;;;;;;9.74;84.66;96350.70;1793200;79;21510;-75
2022/11/03 08:16:40;;;;;;;13.32;8.98;;;;;;;9.76;84.96;96346.30;1786461;79;21054;-73
2022/11/03 08:19:06;;;;;;;13.93;9.35;;;;;;;9.85;84.93;96344.96;1785917;79;21024;-72
2022/11/03 08:21:34;;;;;;;16.50;10.58;;;;;;;9.73;83.88;96352.91;1768924;80;21066;-73
2022/11/03 08:24:01;;;;;;;15.63;9.00;;;;;;;9.70;84.42;96349.84;1792505;79;21516;-75
2022/11/03 08:26:28;;;;;;;24.55;20.08;;;;;;;9.72;84.58;96350.69;1780938;79;21134;-70
2022/11/03 08:28:54;;;;;;;17.45;13.25;;;;;;;9.68;84.35;96348.96;1781253;80;21089;-72
2022/11/03 08:31:21;;;;;;;16.32;9.70;;;;;;;9.72;84.47;96347.18;1785425;79;21719;-79
2022/11/03 08:33:48;;;;;;;13.50;9.15;;;;;;;9.69;84.45;96344.11;1782312;80;21058;-68
2022/11/03 08:36:15;;;;;;;22.10;17.02;;;;;;;9.71;84.68;96340.17;1787499;79;21053;-72
2022/11/03 08:38:41;;;;;;;23.27;12.78;;;;;;;9.66;84.53;96341.50;1770569;80;21017;-75
2022/11/03 08:41:08;;;;;;;15.13;8.60;;;;;;;9.66;84.60;96344.13;1785981;79;21033;-82
2022/11/03 08:43:35;;;;;;;18.45;11.05;;;;;;;9.62;84.82;96337.55;1790680;79;20998;-75
2022/11/03 08:46:02;;;;;;;18.87;11.65;;;;;;;9.63;84.73;96343.28;1783406;80;21021;-77
2022/11/03 08:48:29;;;;;;;16.25;10.45;;;;;;;9.67;84.87;96342.36;1772091;79;21021;-74
2022/11/03 08:50:56;;;;;;;13.08;9.55;;;;;;;9.66;84.72;96342.81;1769350;79;20992;-71
2022/11/03 08:53:25;;;;;;;16.93;8.80;;;;;;;9.67;85.10;96341.92;1783172;79;21011;-69
2022/11/03 08:55:55;;;;;;;15.95;9.50;;;;;;;9.64;84.70;96342.38;1758474;80;21030;-71
2022/11/03 08:58:22;;;;;;;13.53;8.18;;;;;;;9.61;84.96;96348.53;1741379;82;21089;-73
2022/11/03 09:00:49;;;;;;;14.13;8.33;;;;;;;9.64;85.20;96352.92;1719386;83;21120;-68
2022/11/03 09:03:16;;;;;;;14.00;7.75;;;;;;;9.69;85.16;96344.56;1710223;83;21042;-70
2022/11/03 09:05:43;;;;;;;13.55;7.72;;;;;;;9.77;85.26;96345.85;1741246;82;21022;-69
2022/11/03 09:08:10;;;;;;;12.98;7.30;;;;;;;9.84;84.91;96347.14;1707321;83;21539;-71
2022/11/03 09:10:37;;;;;;;10.40;7.22;;;;;;;9.90;84.75;96346.23;1721090;82;21030;-68
2022/11/03 09:13:04;;;;;;;11.85;7.65;;;;;;;9.93;84.71;96347.12;1778225;80;21026;-70
2022/11/03 09:15:31;;;;;;;13.30;8.08;;;;;;;9.93;83.89;96347.12;1774194;80;21087;-67
2022/11/03 09:17:58;;;;;;;9.75;7.12;;;;;;;9.93;84.05;96344.93;1782810;79;21558;-71
2022/11/03 09:20:25;;;;;;;12.73;8.03;;;;;;;9.99;84.19;96342.70;1781273;79;21033;-74
2022/11/03 09:22:52;;;;;;;15.65;10.20;;;;;;;10.05;84.32;96344.84;1790804;80;21106;-76
2022/11/03 09:25:19;;;;;;;13.60;9.60;;;;;;;10.08;83.63;96339.59;1785269;80;20982;-70
2022/11/03 09:27:46;;;;;;;13.25;9.45;;;;;;;10.06;83.24;96336.52;1781300;79;21110;-74
2022/11/03 09:30:13;;;;;;;17.30;11.60;;;;;;;10.09;83.39;96335.19;1772743;80;21029;-69
2022/11/03 09:32:40;;;;;;;12.82;8.25;;;;;;;10.09;83.30;96327.27;1787396;80;21024;-74
2022/11/03 09:35:08;;;;;;;15.95;10.38;;;;;;;10.08;82.68;96328.14;1778342;80;21014;-79
2022/11/03 09:37:35;;;;;;;14.35;9.25;;;;;;;10.09;82.95;96324.64;1776045;80;21511;-78
2022/11/03 09:40:03;;;;;;;17.50;13.22;;;;;;;10.08;82.55;96319.81;1766370;80;21007;-72
2022/11/03 09:42:33;;;;;;;19.35;12.25;;;;;;;10.03;82.76;96320.28;1776449;80;21618;-76
2022/11/03 09:45:01;;;;;;;15.03;10.03;;;;;;;9.90;82.84;96315.92;1786373;80;20998;-76
2022/11/03 09:47:38;;;;;;;19.27;13.38;;;;;;;9.85;82.87;96315.97;1785522;80;21174;-79
2022/11/03 09:50:12;;;;;;;12.07;8.35;;;;;;;9.95;83.49;96312.82;1781619;80;21622;-73
2022/11/03 09:52:39;;;;;;;13.70;8.73;;;;;;;10.02;83.15;96308.41;1768968;80;21643;-73
2022/11/03 09:55:14;;;;;;;12.33;8.25;;;;;;;10.10;82.92;96307.92;1781208;80;20983;-76
2022/11/03 09:57:42;;;;;;;12.50;7.87;;;;;;;10.07;82.33;96311.45;1783371;78;21092;-72
2022/11/03 10:00:21;;;;;;;12.37;8.73;;;;;;;10.04;82.38;96306.64;1774033;79;21002;-78
2022/11/03 10:02:49;;;;;;;28.47;21.42;;;;;;;10.05;82.43;96313.20;1794411;79;21109;-73
2022/11/03 10:05:25;;;;;;;33.50;24.32;;;;;;;10.02;82.36;96308.41;1774037;79;21015;-75
2022/11/03 10:08:03;;;;;;;13.32;9.35;;;;;;;10.01;82.67;96307.54;1773440;78;21017;-77
2022/11/03 10:10:31;;;;;;;13.28;8.80;;;;;;;10.01;82.83;96304.03;1763297;79;20996;-76
2022/11/03 10:13:00;;;;;;;12.60;9.10;;;;;;;10.02;82.74;96306.64;1769751;78;21017;-75
2022/11/03 10:15:27;;;;;;;15.28;10.20;;;;;;;10.02;82.53;96306.64;1782633;78;21049;-76
2022/11/03 10:17:54;;;;;;;13.45;9.78;;;;;;;10.06;82.69;96300.48;1751668;81;21068;-76
2022/11/03 10:20:22;;;;;;;14.03;8.83;;;;;;;10.06;82.62;96297.84;1752735;81;21038;-76
2022/11/03 10:22:53;;;;;;;13.62;8.90;;;;;;;10.06;82.56;96298.30;1744649;81;21759;-76
2022/11/03 10:25:37;;;;;;;10.85;8.08;;;;;;;10.03;82.59;96287.32;1741196;81;21085;-77
2022/11/03 10:28:21;;;;;;;14.73;8.85;;;;;;;10.05;82.55;96285.97;1747696;82;21607;-75
2022/11/03 10:31:05;;;;;;;11.70;8.30;;;;;;;10.05;82.54;96288.61;1747539;82;21042;-76
2022/11/03 10:33:39;;;;;;;11.03;7.42;;;;;;;10.05;82.52;96277.62;1746372;82;21635;-76
2022/11/03 10:36:20;;;;;;;11.22;8.20;;;;;;;10.05;82.54;96275.42;1741055;82;21098;-76
2022/11/03 10:38:47;;;;;;;14.80;9.10;;;;;;;10.10;82.89;96278.46;1761817;79;21047;-76
2022/11/03 10:41:26;;;;;;;14.93;9.45;;;;;;;10.12;82.89;96266.60;1767802;80;20986;-76
2022/11/03 10:44:18;;;;;;;13.25;9.00;;;;;;;10.13;82.31;96272.30;1764480;80;21022;-76
2022/11/03 10:47:05;;;;;;;14.23;8.38;;;;;;;10.08;82.39;96259.58;1755201;80;21025;-75
2022/11/03 10:49:38;;;;;;;13.20;8.05;;;;;;;10.14;82.89;96260.88;1773241;79;21530;-75
2022/11/03 10:52:27;;;;;;;13.55;8.33;;;;;;;10.15;82.46;96256.93;1773814;80;21089;-75
2022/11/03 10:54:57;;;;;;;12.58;8.23;;;;;;;10.17;82.57;96251.17;1763605;80;21084;-75
2022/11/03 10:57:26;;;;;;;14.68;8.25;;;;;;;10.18;82.31;96254.72;1760018;80;22192;-75
2022/11/03 10:59:54;;;;;;;13.50;8.50;;;;;;;10.22;82.52;96248.97;1768293;80;21097;-75
2022/11/03 11:02:30;;;;;;;15.13;9.38;;;;;;;10.30;82.76;96240.58;1770022;80;21058;-75
2022/11/03 11:05:04;;;;;;;14.23;8.63;;;;;;;10.36;82.90;96247.15;1755493;80;21058;-75
2022/11/03 11:07:40;;;;;;;16.75;9.88;;;;;;;10.36;82.41;96244.06;1757732;80;21062;-75
2022/11/03 11:10:23;;;;;;;17.77;9.60;;;;;;;10.32;81.97;96248.05;1770013;79;21002;-75
2022/11/03 11:13:21;;;;;;;16.10;10.23;;;;;;;10.31;81.97;96240.58;1754552;80;21032;-76
2022/11/03 11:15:52;;;;;;;14.78;9.63;;;;;;;10.31;81.95;96234.44;1773900;80;21093;-75
2022/11/03 11:18:33;;;;;;;15.68;9.20;;;;;;;10.28;81.87;96244.98;1756045;80;21016;-75
2022/11/03 11:21:16;;;;;;;19.48;10.32;;;;;;;10.19;81.90;96239.31;1772453;80;21145;-75
2022/11/03 11:23:44;;;;;;;;;;;;;;;10.15;82.26;96238.47;1760086;80;21002;-75
2022/11/03 11:26:31;;;;;;;18.42;10.75;;;;;;;10.15;82.43;96232.30;1756784;80;20101;-75
2022/11/03 11:29:15;;;;;;;15.03;9.68;;;;;;;10.08;82.37;96231.48;1765768;80;21555;-75
2022/11/03 11:31:45;;;;;;;17.55;10.75;;;;;;;10.08;82.65;96225.30;1775960;80;21519;-75
2022/11/03 11:34:23;;;;;;;19.62;11.45;;;;;;;10.03;82.69;96218.77;1759214;80;21512;-75
2022/11/03 11:37:02;;;;;;;18.37;11.10;;;;;;;10.00;82.91;96216.58;1774656;80;21054;-75
2022/11/03 11:39:39;;;;;;;18.20;10.68;;;;;;;10.00;82.76;96223.17;1760884;80;21034;-75
2022/11/03 11:42:16;;;;;;;22.93;10.63;;;;;;;9.95;82.96;96217.92;1773799;80;21102;-75
2022/11/03 11:44:56;;;;;;;16.75;9.65;;;;;;;9.91;83.04;96215.76;1756123;80;21074;-75
2022/11/03 11:47:28;;;;;;;15.93;9.78;;;;;;;9.88;83.35;96217.10;1759068;80;21038;-75
2022/11/03 11:50:15;;;;;;;18.55;10.88;;;;;;;9.88;83.54;96221.50;1771057;80;20998;-75
2022/11/03 11:52:53;;;;;;;22.42;13.13;;;;;;;9.88;83.46;96221.50;1773706;80;21092;-75
2022/11/03 11:55:28;;;;;;;19.50;11.75;;;;;;;9.86;83.33;96214.05;1769276;80;21136;-75
2022/11/03 11:57:55;;;;;;;16.80;10.53;;;;;;;9.88;83.54;96216.23;1749847;80;21013;-75
2022/11/03 12:00:29;;;;;;;17.05;9.93;;;;;;;9.92;83.70;96210.91;1757118;80;21010;-75
2022/11/03 12:02:57;;;;;;;17.90;10.05;;;;;;;9.96;83.58;96213.10;1762741;80;21081;-74
2022/11/03 12:05:30;;;;;;;17.40;9.90;;;;;;;9.99;83.57;96212.20;1766226;80;21492;-75
2022/11/03 12:07:57;;;;;;;19.15;11.08;;;;;;;9.97;83.39;96202.97;1751714;80;21038;-75
2022/11/03 12:10:28;;;;;;;18.77;9.98;;;;;;;9.98;83.54;96208.70;1767789;80;21017;-74
2022/11/03 12:12:57;;;;;;;17.75;10.15;;;;;;;10.01;83.47;96203.40;1765835;80;21049;-75
2022/11/03 12:15:56;;;;;;;16.90;9.90;;;;;;;10.06;83.59;96204.69;1766240;80;21371;-75